• Join FlightAware (Why Join?)
  • Login
  • US Flag 
05:49AM EDT


 

Airport Tracker/Info


-or-


 

Live Flight TrackerFlight Track Log ✈ DAL6057 ✈ 22-Apr-2013 ✈ KCMH - KDTW

Flight Track Log - Related Links

Times and Time Zones

All times are in EDT time to prevent confusion due to time zone crossing. See the DAL6057 flight status page for this flight to view local times or setup timezone preferences in your user account.

Time Position Orientation Groundspeed Altitude Reporting Facility
EDT Latitude Longitude Course Direction KTS MPH feet Rate Location/Type
06:44AM 40.0003 -82.8800 21° North 154 177 1,200  Level Indianapolis Center
06:45AM 40.0017 -82.8311 88° East 179 206 2,500 1,800 Climbing Indianapolis Center
06:46AM 40.0039 -82.7850 86° East 201 231 3,800 2,160 Climbing Indianapolis Center
06:47AM 40.0525 -82.7358 38° Northeast 232 267 6,300 2,280 Climbing Indianapolis Center
06:48AM 40.3210 -82.6422 29° Northeast  Level FlightAware Approximate
06:48AM 40.1203 -82.7086 17° North 253 291 8,500  Level Indianapolis Center
06:49AM 40.4098 -82.5875 25° Northeast  Level FlightAware Approximate
06:49AM 40.1939 -82.6797 17° North 271 312 10,700  Level Indianapolis Center
06:50AM 40.5013 -82.5410 21° North  Level FlightAware Approximate
06:50AM 40.2756 -82.6469 17° North 294 338 12,400  Level Indianapolis Center
06:51AM 40.3625 -82.6117 17° North 319 367 13,900 1,260 Climbing Indianapolis Center
06:52AM 40.4531 -82.5750 17° North 333 383 15,000 540 Climbing Indianapolis Center
06:53AM 40.5425 -82.5325 20° North 338 389 15,000  Level Indianapolis Center
06:54AM 40.6294 -82.4939 19° North 328 377 15,000  Level Indianapolis Center
06:55AM 40.6894 -82.4669 19° North 327 376 15,000  Level Cleveland Center
06:56AM 40.7756 -82.4283 19° North 327 376 15,000  Level Cleveland Center
06:57AM 40.8594 -82.3894 19° North 322 371 15,000  Level Cleveland Center
06:58AM 40.9436 -82.3533 18° North 322 371 15,000  Level Cleveland Center
06:59AM 41.0283 -82.3886 343° North 304 350 15,000  Level Cleveland Center
07:00AM 41.1069 -82.4406 334° Northwest 310 357 15,100  Climbing Cleveland Center
07:01AM 41.1792 -82.4839 336° Northwest 321 369 15,100  Level Cleveland Center
07:02AM 41.2594 -82.5361 334° Northwest 321 369 15,100 -300 Level Cleveland Center
07:03AM 41.3269 -82.6100 321° Northwest 316 364 14,600 -780 Descending Cleveland Center
07:04AM 41.3944 -82.6894 319° Northwest 321 369 13,600 -1,080 Descending Cleveland Center
07:05AM 41.4597 -82.7664 319° Northwest 321 369 12,500 -840 Descending Cleveland Center
07:06AM 41.5331 -82.8522 319° Northwest 321 369 12,000 -420 Descending Cleveland Center
07:06AM 41.5617 -82.8836 321° Northwest 315 362 12,000  Level Cleveland Center
07:07AM 41.5983 -82.9294 317° Northwest 316 364 12,000  Level Cleveland Center
07:08AM 41.6614 -83.0014 320° Northwest 309 356 12,000  Level Cleveland Center
07:09AM 41.7225 -83.0703 320° Northwest 303 349 12,000  Level Cleveland Center
07:09AM 41.7450 -83.0878 330° Northwest 298 343 12,000  Level Cleveland Center
07:10AM 41.7942 -83.1261 330° Northwest 298 343 12,000  Level Cleveland Center
07:10AM 41.8167 -83.1436 330° Northwest 294 338 12,000  Level Cleveland Center
07:11AM 41.8639 -83.1789 331° Northwest 293 337 12,000  Level Cleveland Center
07:11AM 41.8886 -83.1967 332° Northwest 290 334 12,000  Level Cleveland Center
07:12AM 41.9356 -83.2322 331° Northwest 293 337 12,000  Level Cleveland Center
07:12AM 41.9581 -83.2497 330° Northwest 292 336 12,000  Level Cleveland Center
07:13AM 42.0053 -83.2853 331° Northwest 288 331 12,000  Level Cleveland Center
07:13AM 42.0422 -83.3119 332° Northwest 295 339 12,000  Level Cleveland Center
07:14AM 42.0769 -83.3417 328° Northwest 294 338 12,000  Level Cleveland Center
07:14AM 42.1158 -83.3683 333° Northwest 297 342 12,000  Level Cleveland Center
07:15AM 42.1403 -83.3919 324° Northwest 289 333 12,000  Level Cleveland Center
07:15AM 42.1811 -83.4217 332° Northwest 242 278 12,000 -120 Level Cleveland Center
07:16AM 42.1975 -83.4336 332° Northwest 264 304 11,900 -840 Descending Cleveland Center
07:16AM 42.2325 -83.4606 330° Northwest 220 253 11,200 -1,320 Descending Cleveland Center
07:17AM 42.2931 -83.4519 North 216 249 9,900 -1,320 Descending Cleveland Center
07:18AM 42.3436 -83.4289 19° North 212 244 8,700 -1,380 Descending Cleveland Center
07:19AM 42.4006 -83.4033 18° North 211 243 7,300 -1,380 Descending Cleveland Center
07:20AM 42.4411 -83.3603 38° Northeast 202 232 5,900 -1,260 Descending Cleveland Center
07:21AM 42.4178 -83.2917 115° Southeast 178 205 4,800 -1,140 Descending Cleveland Center
07:22AM 42.3789 -83.2703 158° South 165 190 3,600 -1,200 Descending Cleveland Center